Wetterdaten: Woche 18.03.13 - 24.03.13 (KW12)
Datum Zeit Temp. Aussen +5cm Feuchte Auss Luftdruck Regen Sonnenschein Regendauer UV Solar Windben
18.03.2013 00:00 4,5 C 2,9 C 91 % 992,9 hPa 0,0 l/m 0,00 h 0,00 h 0,0 UV-I 0 W/m 17,8 km/h (3 Bft)
18.03.2013 01:00 4,5 C 2,9 C 90 % 993,0 hPa 0,0 l/m 0,00 h 0,00 h 0,0 UV-I 0 W/m 12,4 km/h (3 Bft)
18.03.2013 02:00 4,3 C 3,0 C 90 % 992,9 hPa 0,0 l/m 0,00 h 0,00 h 0,0 UV-I 0 W/m 7,6 km/h (2 Bft)
18.03.2013 03:00 4,4 C 2,9 C 88 % 992,9 hPa 0,0 l/m 0,00 h 0,00 h 0,0 UV-I 0 W/m 9,3 km/h (2 Bft)
18.03.2013 04:00 3,9 C 2,2 C 87 % 993,2 hPa 0,0 l/m 0,00 h 0,00 h 0,0 UV-I 0 W/m 6,3 km/h (2 Bft)
18.03.2013 05:00 3,5 C 1,5 C 86 % 993,5 hPa 0,0 l/m 0,00 h 0,00 h 0,0 UV-I 0 W/m 10,5 km/h (2 Bft)
18.03.2013 06:00 2,6 C 0,7 C 87 % 993,8 hPa 0,0 l/m 0,00 h 0,00 h 0,0 UV-I 6 W/m 9,1 km/h (2 Bft)
18.03.2013 07:00 2,3 C 0,9 C 87 % 994,0 hPa 0,0 l/m 0,00 h 0,00 h 0,0 UV-I 25 W/m 10,5 km/h (2 Bft)
18.03.2013 08:00 3,3 C 2,4 C 86 % 994,2 hPa 0,0 l/m 0,40 h 0,00 h 0,0 UV-I 135 W/m 15,9 km/h (3 Bft)
18.03.2013 09:00 6,0 C 5,0 C 76 % 993,9 hPa 0,0 l/m 0,93 h 0,00 h 0,5 UV-I 356 W/m 11,7 km/h (2 Bft)
18.03.2013 10:00 8,9 C 7,6 C 65 % 993,4 hPa 0,0 l/m 0,97 h 0,00 h 0,7 UV-I 467 W/m 10,7 km/h (2 Bft)
18.03.2013 11:00 10,7 C 9,1 C 58 % 992,9 hPa 0,0 l/m 1,00 h 0,00 h 1,2 UV-I 569 W/m 10,2 km/h (2 Bft)
18.03.2013 12:00 11,4 C 10,0 C 54 % 992,4 hPa 0,0 l/m 0,80 h 0,00 h 1,4 UV-I 521 W/m 12,1 km/h (2 Bft)
18.03.2013 13:00 11,7 C 10,1 C 52 % 992,2 hPa 0,0 l/m 0,37 h 0,00 h 1,0 UV-I 353 W/m 10,0 km/h (2 Bft)
18.03.2013 14:00 11,6 C 10,4 C 54 % 991,9 hPa 0,0 l/m 0,13 h 0,00 h 0,9 UV-I 219 W/m 11,5 km/h (2 Bft)
18.03.2013 15:00 10,3 C 8,7 C 57 % 991,9 hPa 0,0 l/m 0,00 h 0,00 h 0,0 UV-I 118 W/m 10,9 km/h (2 Bft)
18.03.2013 16:00 10,6 C 9,7 C 56 % 991,8 hPa 0,0 l/m 0,17 h 0,00 h 0,0 UV-I 147 W/m 12,3 km/h (3 Bft)
18.03.2013 17:00 9,9 C 8,4 C 61 % 992,0 hPa 0,0 l/m 0,33 h 0,00 h 0,0 UV-I 96 W/m 14,6 km/h (3 Bft)
18.03.2013 18:00 9,1 C 6,4 C 63 % 992,3 hPa 0,0 l/m 0,23 h 0,00 h 0,0 UV-I 30 W/m 4,1 km/h (1 Bft)
18.03.2013 19:00 7,7 C 4,2 C 67 % 992,7 hPa 0,0 l/m 0,00 h 0,00 h 0,0 UV-I 0 W/m 0,3 km/h (0 Bft)
18.03.2013 20:00 6,0 C 2,3 C 72 % 992,9 hPa 0,0 l/m 0,00 h 0,00 h 0,0 UV-I 0 W/m 0,0 km/h (0 Bft)
18.03.2013 21:00 4,4 C 1,3 C 77 % 993,1 hPa 0,0 l/m 0,00 h 0,00 h 0,0 UV-I 0 W/m 0,0 km/h (0 Bft)
18.03.2013 22:00 3,3 C 0,5 C 81 % 993,3 hPa 0,0 l/m 0,00 h 0,00 h 0,0 UV-I 0 W/m 0,0 km/h (0 Bft)
18.03.2013 23:00 2,2 C -0,6 C 84 % 993,3 hPa 0,0 l/m 0,00 h 0,00 h 0,0 UV-I 0 W/m 0,0 km/h (0 Bft)
19.03.2013 00:00 1,3 C -1,0 C 88 % 993,5 hPa 0,0 l/m 0,00 h 0,00 h 0,0 UV-I 0 W/m 0,0 km/h (0 Bft)
19.03.2013 01:00 0,7 C -1,4 C 90 % 993,9 hPa 0,0 l/m 0,00 h 0,00 h 0,0 UV-I 0 W/m 0,0 km/h (0 Bft)
19.03.2013 02:00 0,3 C -1,6 C 92 % 994,3 hPa 0,0 l/m 0,00 h 0,00 h 0,0 UV-I 0 W/m 0,0 km/h (0 Bft)
19.03.2013 03:00 0,1 C -1,8 C 93 % 994,5 hPa 0,0 l/m 0,00 h 0,00 h 0,0 UV-I 0 W/m 0,0 km/h (0 Bft)
19.03.2013 04:00 -0,3 C -2,2 C 93 % 994,9 hPa 0,0 l/m 0,00 h 0,00 h 0,0 UV-I 0 W/m 0,0 km/h (0 Bft)
19.03.2013 05:00 -0,6 C -1,8 C 94 % 995,4 hPa 0,0 l/m 0,00 h 0,00 h 0,0 UV-I 0 W/m 0,1 km/h (0 Bft)
19.03.2013 06:00 0,1 C -0,5 C 95 % 996,0 hPa 0,0 l/m 0,00 h 0,00 h 0,0 UV-I 8 W/m 0,1 km/h (0 Bft)
19.03.2013 07:00 1,1 C 0,8 C 95 % 996,3 hPa 0,0 l/m 0,00 h 0,00 h 0,0 UV-I 38 W/m 0,3 km/h (0 Bft)
19.03.2013 08:00 3,5 C 3,5 C 94 % 996,6 hPa 0,0 l/m 0,00 h 0,00 h 0,0 UV-I 65 W/m 5,4 km/h (1 Bft)
19.03.2013 09:00 4,9 C 4,4 C 89 % 997,2 hPa 0,0 l/m 0,00 h 0,00 h 0,0 UV-I 85 W/m 6,8 km/h (2 Bft)
19.03.2013 10:00 5,0 C 4,3 C 90 % 997,6 hPa 0,0 l/m 0,00 h 0,10 h 0,0 UV-I 100 W/m 4,7 km/h (1 Bft)
19.03.2013 11:00 5,1 C 4,1 C 91 % 997,9 hPa 0,2 l/m 0,00 h 0,57 h 0,0 UV-I 110 W/m 1,7 km/h (1 Bft)
19.03.2013 12:00 5,3 C 4,1 C 93 % 998,3 hPa 0,4 l/m 0,00 h 0,60 h 0,0 UV-I 92 W/m 0,8 km/h (0 Bft)
19.03.2013 13:00 6,0 C 5,3 C 94 % 998,3 hPa 0,0 l/m 0,07 h 0,00 h 0,6 UV-I 218 W/m 1,4 km/h (1 Bft)
19.03.2013 14:00 6,3 C 4,7 C 88 % 998,5 hPa 0,4 l/m 0,00 h 0,40 h 0,6 UV-I 112 W/m 8,6 km/h (2 Bft)
19.03.2013 15:00 6,5 C 5,0 C 90 % 998,5 hPa 0,2 l/m 0,27 h 0,23 h 0,7 UV-I 186 W/m 3,3 km/h (1 Bft)
19.03.2013 16:00 6,6 C 5,1 C 89 % 998,5 hPa 0,0 l/m 0,00 h 0,00 h 0,0 UV-I 124 W/m 2,0 km/h (1 Bft)
19.03.2013 17:00 6,8 C 4,9 C 87 % 998,7 hPa 0,0 l/m 0,07 h 0,00 h 0,0 UV-I 77 W/m 0,6 km/h (0 Bft)
19.03.2013 18:00 6,3 C 3,5 C 87 % 999,2 hPa 0,0 l/m 0,00 h 0,07 h 0,0 UV-I 11 W/m 0,0 km/h (0 Bft)
19.03.2013 19:00 5,5 C 3,2 C 90 % 999,6 hPa 0,0 l/m 0,00 h 0,17 h 0,0 UV-I 0 W/m 0,9 km/h (0 Bft)
19.03.2013 20:00 5,0 C 3,0 C 91 % 1000,0 hPa 0,2 l/m 0,00 h 0,37 h 0,0 UV-I 0 W/m 0,7 km/h (0 Bft)
19.03.2013 21:00 4,6 C 2,9 C 93 % 1000,5 hPa 0,0 l/m 0,00 h 0,00 h 0,0 UV-I 0 W/m 1,3 km/h (1 Bft)
19.03.2013 22:00 3,9 C 2,3 C 94 % 1000,8 hPa 0,0 l/m 0,00 h 0,00 h 0,0 UV-I 0 W/m 0,1 km/h (0 Bft)
19.03.2013 23:00 3,4 C 1,4 C 95 % 1000,9 hPa 0,0 l/m 0,00 h 0,00 h 0,0 UV-I 0 W/m 1,9 km/h (1 Bft)
20.03.2013 00:00 2,4 C 0,0 C 95 % 1000,8 hPa 0,0 l/m 0,00 h 0,00 h 0,0 UV-I 0 W/m 0,1 km/h (0 Bft)
20.03.2013 01:00 1,4 C -0,8 C 95 % 1000,7 hPa 0,0 l/m 0,00 h 0,00 h 0,0 UV-I 0 W/m 0,0 km/h (0 Bft)
20.03.2013 02:00 0,7 C -1,2 C 96 % 1000,5 hPa 0,0 l/m 0,00 h 0,00 h 0,0 UV-I 0 W/m 0,0 km/h (0 Bft)
20.03.2013 03:00 0,6 C -0,9 C 97 % 1000,4 hPa 0,0 l/m 0,00 h 0,00 h 0,0 UV-I 0 W/m 0,1 km/h (0 Bft)
20.03.2013 04:00 0,9 C -0,0 C 98 % 1000,2 hPa 0,0 l/m 0,00 h 0,00 h 0,0 UV-I 0 W/m 0,2 km/h (0 Bft)
20.03.2013 05:00 1,2 C 0,4 C 99 % 1000,2 hPa 0,2 l/m 0,00 h 0,03 h 0,0 UV-I 0 W/m 2,4 km/h (1 Bft)
20.03.2013 06:00 1,5 C 0,7 C 99 % 1000,1 hPa 0,2 l/m 0,00 h 0,97 h 0,0 UV-I 5 W/m 1,7 km/h (1 Bft)
20.03.2013 07:00 1,8 C 1,0 C 99 % 1000,0 hPa 0,2 l/m 0,00 h 0,60 h 0,0 UV-I 25 W/m 5,5 km/h (1 Bft)
20.03.2013 08:00 2,0 C 1,2 C 99 % 1000,0 hPa 0,4 l/m 0,00 h 0,90 h 0,0 UV-I 29 W/m 5,6 km/h (1 Bft)
20.03.2013 09:00 2,1 C 1,3 C 100 % 1000,0 hPa 0,4 l/m 0,00 h 1,00 h 0,0 UV-I 34 W/m 4,7 km/h (1 Bft)
20.03.2013 10:00 2,2 C 1,7 C 100 % 1000,2 hPa 0,4 l/m 0,00 h 1,00 h 0,0 UV-I 47 W/m 5,4 km/h (1 Bft)
20.03.2013 11:00 2,1 C 1,4 C 99 % 1000,7 hPa 1,0 l/m 0,00 h 1,00 h 0,0 UV-I 53 W/m 5,1 km/h (1 Bft)
20.03.2013 12:00 1,4 C 0,0 C 99 % 1001,2 hPa 1,2 l/m 0,00 h 1,00 h 0,0 UV-I 48 W/m 2,3 km/h (1 Bft)
20.03.2013 13:00 0,7 C -1,0 C 99 % 1001,8 hPa 0,4 l/m 0,00 h 1,00 h 0,0 UV-I 45 W/m 1,9 km/h (1 Bft)
20.03.2013 14:00 0,5 C -1,0 C 99 % 1002,6 hPa 0,4 l/m 0,00 h 1,00 h 0,0 UV-I 38 W/m 2,9 km/h (1 Bft)
20.03.2013 15:00 0,4 C -1,0 C 99 % 1003,4 hPa 0,4 l/m 0,00 h 0,87 h 0,0 UV-I 36 W/m 7,4 km/h (2 Bft)
20.03.2013 16:00 0,4 C -1,0 C 99 % 1004,5 hPa 0,6 l/m 0,00 h 0,97 h 0,0 UV-I 29 W/m 11,7 km/h (2 Bft)
20.03.2013 17:00 0,3 C -1,0 C 99 % 1005,9 hPa 0,4 l/m 0,00 h 0,80 h 0,0 UV-I 31 W/m 14,3 km/h (3 Bft)
20.03.2013 18:00 0,1 C -1,0 C 99 % 1007,6 hPa 0,2 l/m 0,00 h 0,20 h 0,0 UV-I 15 W/m 13,6 km/h (3 Bft)
20.03.2013 19:00 -0,0 C -1,0 C 99 % 1009,3 hPa 0,2 l/m 0,00 h 0,23 h 0,0 UV-I 0 W/m 12,8 km/h (3 Bft)
20.03.2013 20:00 -0,1 C -1,0 C 99 % 1010,5 hPa 0,0 l/m 0,00 h 0,10 h 0,0 UV-I 0 W/m 7,5 km/h (2 Bft)
20.03.2013 21:00 0,0 C -1,0 C 99 % 1011,4 hPa 0,0 l/m 0,00 h 0,00 h 0,0 UV-I 0 W/m 1,0 km/h (0 Bft)
20.03.2013 22:00 0,0 C -1,0 C 99 % 1012,3 hPa 0,0 l/m 0,00 h 0,00 h 0,0 UV-I 0 W/m 0,0 km/h (0 Bft)
20.03.2013 23:00 0,0 C -1,0 C 99 % 1013,2 hPa 0,0 l/m 0,00 h 0,00 h 0,0 UV-I 0 W/m 0,3 km/h (0 Bft)
21.03.2013 00:00 0,1 C -1,0 C 99 % 1013,8 hPa 0,0 l/m 0,00 h 0,00 h 0,0 UV-I 0 W/m 0,0 km/h (0 Bft)
21.03.2013 01:00 0,2 C -1,0 C 99 % 1014,3 hPa 0,0 l/m 0,00 h 0,00 h 0,0 UV-I 0 W/m 0,0 km/h (0 Bft)
21.03.2013 02:00 0,3 C -0,9 C 99 % 1014,9 hPa 0,0 l/m 0,00 h 0,00 h 0,0 UV-I 0 W/m 0,3 km/h (0 Bft)
21.03.2013 03:00 0,1 C -1,0 C 99 % 1015,1 hPa 0,0 l/m 0,00 h 0,00 h 0,0 UV-I 0 W/m 0,7 km/h (0 Bft)
21.03.2013 04:00 -0,1 C -1,0 C 99 % 1015,5 hPa 0,0 l/m 0,00 h 0,00 h 0,0 UV-I 0 W/m 0,0 km/h (0 Bft)
21.03.2013 05:00 -0,1 C -1,0 C 99 % 1016,1 hPa 0,0 l/m 0,00 h 0,00 h 0,0 UV-I 0 W/m 0,1 km/h (0 Bft)
21.03.2013 06:00 -0,2 C -1,0 C 98 % 1016,5 hPa 0,0 l/m 0,00 h 0,00 h 0,0 UV-I 0 W/m 1,5 km/h (1 Bft)
21.03.2013 07:00 -0,3 C -1,0 C 98 % 1016,9 hPa 0,0 l/m 0,00 h 0,00 h 0,0 UV-I 8 W/m 0,9 km/h (0 Bft)
21.03.2013 08:00 -0,2 C -1,0 C 97 % 1017,4 hPa 0,0 l/m 0,00 h 0,00 h 0,0 UV-I 21 W/m 0,3 km/h (0 Bft)
21.03.2013 09:00 0,0 C -0,5 C 97 % 1017,8 hPa 0,0 l/m 0,00 h 0,00 h 0,0 UV-I 48 W/m 1,0 km/h (0 Bft)
21.03.2013 10:00 0,5 C 0,4 C 94 % 1018,4 hPa 0,4 l/m 0,33 h 0,00 h 1,0 UV-I 207 W/m 2,2 km/h (1 Bft)
21.03.2013 11:00 2,1 C 2,0 C 84 % 1018,7 hPa 1,0 l/m 0,33 h 0,00 h 1,0 UV-I 262 W/m 2,4 km/h (1 Bft)
21.03.2013 12:00 2,5 C 2,5 C 79 % 1018,8 hPa 0,4 l/m 0,00 h 0,00 h 0,8 UV-I 188 W/m 1,2 km/h (1 Bft)
21.03.2013 13:00 2,9 C 2,9 C 78 % 1019,0 hPa 0,0 l/m 0,10 h 0,00 h 1,0 UV-I 236 W/m 2,1 km/h (1 Bft)
21.03.2013 14:00 3,2 C 3,0 C 73 % 1018,9 hPa 0,0 l/m 0,00 h 0,00 h 0,0 UV-I 159 W/m 3,3 km/h (1 Bft)
21.03.2013 15:00 3,8 C 3,8 C 71 % 1018,7 hPa 0,0 l/m 0,60 h 0,00 h 0,6 UV-I 278 W/m 1,4 km/h (1 Bft)
21.03.2013 16:00 4,7 C 3,9 C 67 % 1018,7 hPa 0,0 l/m 0,90 h 0,00 h 0,0 UV-I 312 W/m 5,4 km/h (1 Bft)
21.03.2013 17:00 4,5 C 2,6 C 67 % 1018,5 hPa 0,0 l/m 0,67 h 0,00 h 0,0 UV-I 118 W/m 1,9 km/h (1 Bft)
21.03.2013 18:00 3,6 C 1,2 C 69 % 1018,7 hPa 0,0 l/m 0,23 h 0,00 h 0,0 UV-I 29 W/m 0,0 km/h (0 Bft)
21.03.2013 19:00 2,1 C -0,8 C 76 % 1019,0 hPa 0,0 l/m 0,00 h 0,00 h 0,0 UV-I 0 W/m 0,0 km/h (0 Bft)
21.03.2013 20:00 1,2 C -1,7 C 82 % 1019,4 hPa 0,0 l/m 0,00 h 0,00 h 0,0 UV-I 0 W/m 0,0 km/h (0 Bft)
21.03.2013 21:00 0,3 C -2,3 C 84 % 1019,5 hPa 0,0 l/m 0,00 h 0,00 h 0,0 UV-I 0 W/m 0,0 km/h (0 Bft)
21.03.2013 22:00 0,3 C -0,8 C 89 % 1019,5 hPa 0,0 l/m 0,00 h 0,00 h 0,0 UV-I 0 W/m 0,0 km/h (0 Bft)
21.03.2013 23:00 0,6 C -1,2 C 88 % 1019,5 hPa 0,0 l/m 0,00 h 0,00 h 0,0 UV-I 0 W/m 0,6 km/h (0 Bft)
22.03.2013 00:00 -0,4 C -3,0 C 87 % 1019,3 hPa 0,0 l/m 0,00 h 0,00 h 0,0 UV-I 0 W/m 0,0 km/h (0 Bft)
22.03.2013 01:00 -1,4 C -3,2 C 90 % 1019,2 hPa 0,0 l/m 0,00 h 0,00 h 0,0 UV-I 0 W/m 0,0 km/h (0 Bft)
22.03.2013 02:00 -1,5 C -2,9 C 93 % 1019,1 hPa 0,0 l/m 0,00 h 0,00 h 0,0 UV-I 0 W/m 0,1 km/h (0 Bft)
22.03.2013 03:00 -1,9 C -3,2 C 94 % 1018,6 hPa 0,0 l/m 0,00 h 0,00 h 0,0 UV-I 0 W/m 0,0 km/h (0 Bft)
22.03.2013 04:00 -2,2 C -3,4 C 95 % 1018,2 hPa 0,0 l/m 0,00 h 0,00 h 0,0 UV-I 0 W/m 0,2 km/h (0 Bft)
22.03.2013 05:00 -2,3 C -3,4 C 96 % 1018,2 hPa 0,0 l/m 0,00 h 0,00 h 0,0 UV-I 0 W/m 2,1 km/h (1 Bft)
22.03.2013 06:00 -2,6 C -3,8 C 95 % 1018,0 hPa 0,0 l/m 0,00 h 0,00 h 0,0 UV-I 10 W/m 0,6 km/h (0 Bft)
22.03.2013 07:00 -2,4 C -3,0 C 95 % 1018,0 hPa 0,0 l/m 0,00 h 0,00 h 0,0 UV-I 34 W/m 7,7 km/h (2 Bft)
22.03.2013 08:00 -0,9 C -1,4 C 90 % 1018,1 hPa 0,0 l/m 0,57 h 0,00 h 0,0 UV-I 162 W/m 13,3 km/h (3 Bft)
22.03.2013 09:00 1,2 C 0,3 C 81 % 1017,7 hPa 0,0 l/m 0,93 h 0,00 h 0,5 UV-I 304 W/m 14,2 km/h (3 Bft)
22.03.2013 10:00 3,3 C 2,5 C 74 % 1017,1 hPa 0,0 l/m 1,00 h 0,00 h 1,0 UV-I 464 W/m 18,6 km/h (3 Bft)
22.03.2013 11:00 4,7 C 4,5 C 70 % 1016,6 hPa 0,0 l/m 0,83 h 0,00 h 1,2 UV-I 493 W/m 19,6 km/h (3 Bft)
22.03.2013 12:00 6,3 C 6,8 C 66 % 1016,0 hPa 0,0 l/m 0,93 h 0,00 h 1,6 UV-I 558 W/m 23,0 km/h (4 Bft)
22.03.2013 13:00 5,8 C 5,8 C 69 % 1015,4 hPa 0,0 l/m 0,13 h 0,00 h 0,9 UV-I 315 W/m 20,6 km/h (4 Bft)
22.03.2013 14:00 5,6 C 5,8 C 69 % 1014,8 hPa 0,0 l/m 0,37 h 0,00 h 0,7 UV-I 317 W/m 22,9 km/h (4 Bft)
22.03.2013 15:00 5,5 C 5,4 C 70 % 1014,1 hPa 0,0 l/m 0,17 h 0,00 h 0,0 UV-I 222 W/m 18,7 km/h (3 Bft)
22.03.2013 16:00 5,0 C 4,7 C 72 % 1014,1 hPa 0,0 l/m 0,27 h 0,00 h 0,0 UV-I 176 W/m 15,5 km/h (3 Bft)
22.03.2013 17:00 3,5 C 2,6 C 76 % 1014,1 hPa 0,0 l/m 0,00 h 0,00 h 0,0 UV-I 61 W/m 12,4 km/h (3 Bft)
22.03.2013 18:00 2,2 C 1,1 C 79 % 1014,1 hPa 0,0 l/m 0,00 h 0,00 h 0,0 UV-I 15 W/m 13,5 km/h (3 Bft)
22.03.2013 19:00 1,8 C 0,6 C 78 % 1014,4 hPa 0,0 l/m 0,00 h 0,00 h 0,0 UV-I 0 W/m 18,4 km/h (3 Bft)
22.03.2013 20:00 1,3 C 0,1 C 77 % 1014,6 hPa 0,0 l/m 0,00 h 0,00 h 0,0 UV-I 0 W/m 22,2 km/h (4 Bft)
22.03.2013 21:00 1,1 C -0,1 C 77 % 1014,5 hPa 0,0 l/m 0,00 h 0,00 h 0,0 UV-I 0 W/m 20,5 km/h (4 Bft)
22.03.2013 22:00 0,5 C -0,8 C 78 % 1014,1 hPa 0,0 l/m 0,00 h 0,00 h 0,0 UV-I 0 W/m 17,5 km/h (3 Bft)
22.03.2013 23:00 0,1 C -1,0 C 78 % 1014,2 hPa 0,0 l/m 0,00 h 0,00 h 0,0 UV-I 0 W/m 21,4 km/h (4 Bft)
23.03.2013 00:00 -0,3 C -1,3 C 78 % 1014,5 hPa 0,0 l/m 0,00 h 0,00 h 0,0 UV-I 0 W/m 21,2 km/h (4 Bft)
23.03.2013 01:00 -0,4 C -1,6 C 78 % 1014,5 hPa 0,0 l/m 0,00 h 0,00 h 0,0 UV-I 0 W/m 20,0 km/h (4 Bft)
23.03.2013 02:00 -0,4 C -1,6 C 78 % 1014,7 hPa 0,0 l/m 0,00 h 0,00 h 0,0 UV-I 0 W/m 15,6 km/h (3 Bft)
23.03.2013 03:00 -0,6 C -1,6 C 79 % 1014,4 hPa 0,0 l/m 0,00 h 0,00 h 0,0 UV-I 0 W/m 17,9 km/h (3 Bft)
23.03.2013 04:00 -0,7 C -1,6 C 79 % 1014,0 hPa 0,0 l/m 0,00 h 0,00 h 0,0 UV-I 0 W/m 21,3 km/h (4 Bft)
23.03.2013 05:00 -0,6 C -1,6 C 80 % 1014,3 hPa 0,0 l/m 0,00 h 0,00 h 0,0 UV-I 0 W/m 20,9 km/h (4 Bft)
23.03.2013 06:00 -0,6 C -1,6 C 80 % 1014,4 hPa 0,0 l/m 0,00 h 0,00 h 0,0 UV-I 9 W/m 17,5 km/h (3 Bft)
23.03.2013 07:00 -0,3 C -1,0 C 78 % 1014,4 hPa 0,0 l/m 0,00 h 0,00 h 0,0 UV-I 41 W/m 20,8 km/h (4 Bft)
23.03.2013 08:00 0,1 C -0,2 C 77 % 1014,4 hPa 0,0 l/m 0,00 h 0,00 h 0,0 UV-I 97 W/m 23,2 km/h (4 Bft)
23.03.2013 09:00 0,7 C 0,6 C 75 % 1014,3 hPa 0,0 l/m 0,00 h 0,00 h 0,0 UV-I 149 W/m 27,6 km/h (4 Bft)
23.03.2013 10:00 1,3 C 1,6 C 72 % 1014,3 hPa 0,0 l/m 0,00 h 0,00 h 0,0 UV-I 180 W/m 23,0 km/h (4 Bft)
23.03.2013 11:00 1,8 C 2,2 C 70 % 1014,3 hPa 0,0 l/m 0,00 h 0,00 h 0,0 UV-I 185 W/m 21,2 km/h (4 Bft)
23.03.2013 12:00 2,0 C 1,8 C 70 % 1014,3 hPa 0,0 l/m 0,00 h 0,00 h 0,0 UV-I 110 W/m 21,4 km/h (4 Bft)
23.03.2013 13:00 1,2 C 0,1 C 79 % 1014,4 hPa 0,0 l/m 0,00 h 0,00 h 0,0 UV-I 69 W/m 22,5 km/h (4 Bft)
23.03.2013 14:00 -0,3 C -1,0 C 94 % 1014,2 hPa 0,4 l/m 0,00 h 0,00 h 0,0 UV-I 60 W/m 17,7 km/h (3 Bft)
23.03.2013 15:00 -0,0 C -1,0 C 93 % 1014,0 hPa 0,0 l/m 0,00 h 0,07 h 0,0 UV-I 53 W/m 12,3 km/h (3 Bft)
23.03.2013 16:00 0,3 C -1,0 C 82 % 1013,7 hPa 0,0 l/m 0,00 h 0,00 h 0,0 UV-I 41 W/m 10,6 km/h (2 Bft)
23.03.2013 17:00 0,2 C -1,0 C 76 % 1013,5 hPa 0,0 l/m 0,00 h 0,00 h 0,0 UV-I 17 W/m 11,0 km/h (2 Bft)
23.03.2013 18:00 0,0 C -1,3 C 73 % 1013,7 hPa 0,0 l/m 0,00 h 0,00 h 0,0 UV-I 7 W/m 12,1 km/h (2 Bft)
23.03.2013 19:00 -0,2 C -1,6 C 71 % 1014,1 hPa 0,0 l/m 0,00 h 0,00 h 0,0 UV-I 0 W/m 11,8 km/h (2 Bft)
23.03.2013 20:00 -0,4 C -1,6 C 72 % 1014,5 hPa 0,0 l/m 0,00 h 0,00 h 0,0 UV-I 0 W/m 9,3 km/h (2 Bft)
23.03.2013 21:00 -0,7 C -2,0 C 73 % 1014,7 hPa 0,0 l/m 0,00 h 0,00 h 0,0 UV-I 0 W/m 13,2 km/h (3 Bft)
23.03.2013 22:00 -1,2 C -2,4 C 73 % 1014,8 hPa 0,0 l/m 0,00 h 0,00 h 0,0 UV-I 0 W/m 12,3 km/h (3 Bft)
23.03.2013 23:00 -1,5 C -2,7 C 72 % 1015,0 hPa 0,0 l/m 0,00 h 0,00 h 0,0 UV-I 0 W/m 10,8 km/h (2 Bft)
24.03.2013 00:00 -1,8 C -2,7 C 71 % 1015,1 hPa 0,0 l/m 0,00 h 0,00 h 0,0 UV-I 0 W/m 8,9 km/h (2 Bft)
24.03.2013 01:00 -1,9 C -2,8 C 68 % 1014,9 hPa 0,0 l/m 0,00 h 0,00 h 0,0 UV-I 0 W/m 9,9 km/h (2 Bft)
24.03.2013 02:00 -2,4 C -3,5 C 67 % 1014,6 hPa 0,0 l/m 0,00 h 0,00 h 0,0 UV-I 0 W/m 9,3 km/h (2 Bft)
24.03.2013 03:00 -2,9 C -3,8 C 68 % 1014,3 hPa 0,0 l/m 0,00 h 0,00 h 0,0 UV-I 0 W/m 10,5 km/h (2 Bft)
24.03.2013 04:00 -3,1 C -3,8 C 68 % 1014,3 hPa 0,0 l/m 0,00 h 0,00 h 0,0 UV-I 0 W/m 9,1 km/h (2 Bft)
24.03.2013 05:00 -3,3 C -4,3 C 67 % 1014,6 hPa 0,0 l/m 0,00 h 0,00 h 0,0 UV-I 0 W/m 12,4 km/h (3 Bft)
24.03.2013 06:00 -3,6 C -4,3 C 66 % 1014,8 hPa 0,0 l/m 0,00 h 0,00 h 0,0 UV-I 9 W/m 13,7 km/h (3 Bft)
24.03.2013 07:00 -3,6 C -4,2 C 64 % 1014,9 hPa 0,0 l/m 0,00 h 0,00 h 0,0 UV-I 42 W/m 12,8 km/h (3 Bft)
24.03.2013 08:00 -3,1 C -3,3 C 60 % 1014,8 hPa 0,0 l/m 0,00 h 0,00 h 0,0 UV-I 97 W/m 17,5 km/h (3 Bft)
24.03.2013 09:00 -2,0 C -1,8 C 56 % 1014,6 hPa 0,0 l/m 0,00 h 0,00 h 0,0 UV-I 188 W/m 14,1 km/h (3 Bft)
24.03.2013 10:00 -1,1 C -0,8 C 53 % 1014,4 hPa 0,0 l/m 0,00 h 0,00 h 0,0 UV-I 203 W/m 15,3 km/h (3 Bft)
24.03.2013 11:00 -0,0 C 0,6 C 49 % 1014,1 hPa 0,0 l/m 0,00 h 0,00 h 0,6 UV-I 258 W/m 16,8 km/h (3 Bft)
24.03.2013 12:00 1,7 C 2,4 C 46 % 1013,6 hPa 0,0 l/m 0,67 h 0,00 h 0,9 UV-I 362 W/m 17,7 km/h (3 Bft)
24.03.2013 13:00 3,1 C 3,6 C 43 % 1013,1 hPa 0,0 l/m 0,53 h 0,00 h 1,0 UV-I 377 W/m 19,6 km/h (3 Bft)
24.03.2013 14:00 3,0 C 3,1 C 42 % 1012,8 hPa 0,0 l/m 0,00 h 0,00 h 0,5 UV-I 207 W/m 18,4 km/h (3 Bft)
24.03.2013 15:00 3,0 C 2,8 C 42 % 1012,5 hPa 0,0 l/m 0,00 h 0,00 h 0,0 UV-I 156 W/m 18,1 km/h (3 Bft)
24.03.2013 16:00 3,0 C 2,3 C 41 % 1012,5 hPa 0,0 l/m 0,00 h 0,00 h 0,0 UV-I 98 W/m 16,8 km/h (3 Bft)
24.03.2013 17:00 2,3 C 1,4 C 41 % 1012,5 hPa 0,0 l/m 0,00 h 0,00 h 0,0 UV-I 56 W/m 20,6 km/h (4 Bft)
24.03.2013 18:00 1,7 C 0,4 C 43 % 1012,9 hPa 0,0 l/m 0,00 h 0,00 h 0,0 UV-I 14 W/m 20,8 km/h (4 Bft)
24.03.2013 19:00 1,2 C -0,2 C 46 % 1013,7 hPa 0,0 l/m 0,00 h 0,00 h 0,0 UV-I 0 W/m 18,6 km/h (3 Bft)
24.03.2013 20:00 0,8 C -0,4 C 48 % 1014,1 hPa 0,0 l/m 0,00 h 0,00 h 0,0 UV-I 0 W/m 19,0 km/h (3 Bft)
24.03.2013 21:00 0,5 C -0,7 C 50 % 1014,4 hPa 0,0 l/m 0,00 h 0,00 h 0,0 UV-I 0 W/m 19,9 km/h (4 Bft)
24.03.2013 22:00 0,0 C -1,0 C 51 % 1014,5 hPa 0,0 l/m 0,00 h 0,00 h 0,0 UV-I 0 W/m 19,6 km/h (3 Bft)
24.03.2013 23:00 -0,3 C -1,5 C 54 % 1014,6 hPa 0,0 l/m 0,00 h 0,00 h 0,0 UV-I 0 W/m 14,1 km/h (3 Bft)
Min-Datum _ 24.03.13 24.03.13 24.03.13 18.03.13 - - - - - 18.03.13
_ Min-Zeit 06:40 04:56 15:54 14:54 - - - - - 02:52
Minimum _ -3,7 C -4,3 C 40 % 991,7 hPa - - - - - 0,0 km/h (0 Bft)
Max-Datum _ 18.03.13 18.03.13 20.03.13 21.03.13 20.03.13 18.03.13 19.03.13 22.03.13 22.03.13 23.03.13
_ Max-Zeit 12:56 14:20 09:28 23:22 12:02 08:04 10:18 12:18 13:16 13:22
Maximum _ 12,1 C 11,8 C 100 % 1019,7 hPa 1,2 l/m 0,03 h 0,03 h 2,2 UV-I 793 W/m 56,6 km/h
SO (7 Bft)
Durchschnitt _ 1,9 C 0,8 C 80 % 1008,1 hPa #10,2 l/m #15:18 h #14:14 h 0,9 UV-I 142 W/m 8,8 km/h (2 Bft)
© 2013 W. Hausmann